sensor_id;sensor_type;location;lat;lon;timestamp;pressure;altitude;pressure_sealevel;temperature;humidity
57442;BME280;43284;47.042;15.498;2023-02-11T00:00:59;99130.28;;;-5.73;78.73
57442;BME280;43284;47.042;15.498;2023-02-11T00:03:24;99117.34;;;-5.78;78.88
57442;BME280;43284;47.042;15.498;2023-02-11T00:06:01;99114.81;;;-5.78;78.85
57442;BME280;43284;47.042;15.498;2023-02-11T00:08:28;99112.84;;;-5.84;79.19
57442;BME280;43284;47.042;15.498;2023-02-11T00:10:54;99113.00;;;-5.81;80.13
57442;BME280;43284;47.042;15.498;2023-02-11T00:13:21;99113.63;;;-5.85;79.62
57442;BME280;43284;47.042;15.498;2023-02-11T00:15:47;99109.38;;;-5.86;79.96
57442;BME280;43284;47.042;15.498;2023-02-11T00:18:13;99115.31;;;-5.85;80.46
57442;BME280;43284;47.042;15.498;2023-02-11T00:20:39;99111.81;;;-5.87;79.98
57442;BME280;43284;47.042;15.498;2023-02-11T00:23:04;99110.88;;;-5.89;79.70
57442;BME280;43284;47.042;15.498;2023-02-11T00:25:30;99105.88;;;-5.88;79.56
57442;BME280;43284;47.042;15.498;2023-02-11T00:27:56;99103.25;;;-5.89;79.13
57442;BME280;43284;47.042;15.498;2023-02-11T00:30:22;99097.00;;;-5.96;79.04
57442;BME280;43284;47.042;15.498;2023-02-11T00:32:47;99097.81;;;-5.97;79.79
57442;BME280;43284;47.042;15.498;2023-02-11T00:35:13;99098.69;;;-5.96;80.04
57442;BME280;43284;47.042;15.498;2023-02-11T00:37:39;99097.66;;;-6.00;79.67
57442;BME280;43284;47.042;15.498;2023-02-11T00:40:05;99093.31;;;-6.03;79.96
57442;BME280;43284;47.042;15.498;2023-02-11T00:42:32;99098.41;;;-6.03;80.10
57442;BME280;43284;47.042;15.498;2023-02-11T00:45:00;99094.09;;;-6.04;80.24
57442;BME280;43284;47.042;15.498;2023-02-11T00:47:26;99091.41;;;-6.07;80.12
57442;BME280;43284;47.042;15.498;2023-02-11T00:49:52;99088.00;;;-6.07;80.40
57442;BME280;43284;47.042;15.498;2023-02-11T00:52:18;99090.69;;;-6.04;80.57
57442;BME280;43284;47.042;15.498;2023-02-11T00:54:44;99084.72;;;-6.05;80.09
57442;BME280;43284;47.042;15.498;2023-02-11T00:57:09;99084.72;;;-6.05;80.23
57442;BME280;43284;47.042;15.498;2023-02-11T00:59:35;99080.38;;;-6.07;80.59
57442;BME280;43284;47.042;15.498;2023-02-11T01:02:01;99077.81;;;-6.07;80.58
57442;BME280;43284;47.042;15.498;2023-02-11T01:04:26;99078.53;;;-6.10;80.21
57442;BME280;43284;47.042;15.498;2023-02-11T01:06:52;99079.25;;;-6.12;80.38
57442;BME280;43284;47.042;15.498;2023-02-11T01:09:18;99075.91;;;-6.11;80.44
57442;BME280;43284;47.042;15.498;2023-02-11T01:11:45;99065.66;;;-6.13;80.19
57442;BME280;43284;47.042;15.498;2023-02-11T01:14:11;99060.66;;;-6.11;80.93
57442;BME280;43284;47.042;15.498;2023-02-11T01:16:37;99058.88;;;-6.12;80.23
57442;BME280;43284;47.042;15.498;2023-02-11T01:19:03;99055.56;;;-6.11;80.87
57442;BME280;43284;47.042;15.498;2023-02-11T01:21:28;99045.22;;;-6.14;80.41
57442;BME280;43284;47.042;15.498;2023-02-11T01:23:54;99045.00;;;-6.19;80.35
57442;BME280;43284;47.042;15.498;2023-02-11T01:26:20;99033.66;;;-6.26;80.32
57442;BME280;43284;47.042;15.498;2023-02-11T01:28:46;99031.84;;;-6.28;81.06
57442;BME280;43284;47.042;15.498;2023-02-11T01:31:12;99024.28;;;-6.27;81.47
57442;BME280;43284;47.042;15.498;2023-02-11T01:33:38;99014.97;;;-6.26;81.23
57442;BME280;43284;47.042;15.498;2023-02-11T01:36:04;99018.16;;;-6.30;81.19
57442;BME280;43284;47.042;15.498;2023-02-11T01:38:31;99018.97;;;-6.31;80.87
57442;BME280;43284;47.042;15.498;2023-02-11T01:40:59;99020.56;;;-6.33;80.72
57442;BME280;43284;47.042;15.498;2023-02-11T01:43:27;99009.53;;;-6.34;80.65
57442;BME280;43284;47.042;15.498;2023-02-11T01:48:53;99017.66;;;-6.41;80.99
57442;BME280;43284;47.042;15.498;2023-02-11T01:51:41;99009.16;;;-6.42;81.01
57442;BME280;43284;47.042;15.498;2023-02-11T01:54:11;99003.94;;;-6.45;80.75
57442;BME280;43284;47.042;15.498;2023-02-11T01:56:57;99000.75;;;-6.40;81.76
57442;BME280;43284;47.042;15.498;2023-02-11T02:03:18;99007.25;;;-6.46;81.63
57442;BME280;43284;47.042;15.498;2023-02-11T02:10:59;99003.13;;;-6.44;81.68
57442;BME280;43284;47.042;15.498;2023-02-11T02:13:27;99000.50;;;-6.45;81.72
57442;BME280;43284;47.042;15.498;2023-02-11T02:16:02;99000.66;;;-6.42;82.66
57442;BME280;43284;47.042;15.498;2023-02-11T02:24:31;98990.78;;;-6.36;82.04
57442;BME280;43284;47.042;15.498;2023-02-11T02:30:10;98978.63;;;-6.42;81.60
57442;BME280;43284;47.042;15.498;2023-02-11T02:36:06;98976.91;;;-6.43;82.22
57442;BME280;43284;47.042;15.498;2023-02-11T02:41:15;98962.13;;;-6.50;81.51
57442;BME280;43284;47.042;15.498;2023-02-11T02:43:47;98961.75;;;-6.57;81.70
57442;BME280;43284;47.042;15.498;2023-02-11T02:46:21;98976.22;;;-6.56;82.36
57442;BME280;43284;47.042;15.498;2023-02-11T02:48:48;98970.03;;;-6.61;82.13
57442;BME280;43284;47.042;15.498;2023-02-11T02:51:26;98977.59;;;-6.63;81.41
57442;BME280;43284;47.042;15.498;2023-02-11T03:05:08;98958.31;;;-6.76;81.95
57442;BME280;43284;47.042;15.498;2023-02-11T03:10:08;98960.81;;;-6.77;81.57
57442;BME280;43284;47.042;15.498;2023-02-11T03:12:36;98962.22;;;-6.82;81.41
57442;BME280;43284;47.042;15.498;2023-02-11T03:15:04;98961.22;;;-6.86;82.45
57442;BME280;43284;47.042;15.498;2023-02-11T03:17:32;98965.50;;;-6.85;82.26
57442;BME280;43284;47.042;15.498;2023-02-11T03:20:01;98958.69;;;-6.86;82.16
57442;BME280;43284;47.042;15.498;2023-02-11T03:22:32;98967.03;;;-6.89;83.08
57442;BME280;43284;47.042;15.498;2023-02-11T03:25:01;98961.66;;;-6.95;82.85
57442;BME280;43284;47.042;15.498;2023-02-11T03:30:15;98951.47;;;-6.95;83.63
57442;BME280;43284;47.042;15.498;2023-02-11T03:32:49;98951.41;;;-6.96;83.38
57442;BME280;43284;47.042;15.498;2023-02-11T03:38:08;98948.63;;;-7.01;82.81
57442;BME280;43284;47.042;15.498;2023-02-11T03:40:39;98941.13;;;-7.16;82.70
57442;BME280;43284;47.042;15.498;2023-02-11T03:43:13;98939.66;;;-7.11;83.57
57442;BME280;43284;47.042;15.498;2023-02-11T03:45:43;98936.13;;;-7.14;83.86
57442;BME280;43284;47.042;15.498;2023-02-11T03:48:47;98936.03;;;-7.16;83.42
57442;BME280;43284;47.042;15.498;2023-02-11T03:51:14;98939.38;;;-7.17;83.89
57442;BME280;43284;47.042;15.498;2023-02-11T03:53:42;98931.09;;;-7.13;84.20
57442;BME280;43284;47.042;15.498;2023-02-11T03:56:13;98924.28;;;-7.14;83.53
57442;BME280;43284;47.042;15.498;2023-02-11T03:58:43;98925.09;;;-7.15;83.15
57442;BME280;43284;47.042;15.498;2023-02-11T04:01:10;98925.88;;;-7.16;83.31
57442;BME280;43284;47.042;15.498;2023-02-11T04:03:36;98919.13;;;-7.15;83.93
57442;BME280;43284;47.042;15.498;2023-02-11T04:06:01;98923.19;;;-7.19;83.29
57442;BME280;43284;47.042;15.498;2023-02-11T04:08:27;98916.84;;;-7.27;83.47
57442;BME280;43284;47.042;15.498;2023-02-11T04:10:53;98923.66;;;-7.26;83.58
57442;BME280;43284;47.042;15.498;2023-02-11T04:13:18;98928.69;;;-7.28;83.50
57442;BME280;43284;47.042;15.498;2023-02-11T04:15:44;98924.16;;;-7.33;83.59
57442;BME280;43284;47.042;15.498;2023-02-11T04:18:09;98930.06;;;-7.34;83.68
57442;BME280;43284;47.042;15.498;2023-02-11T04:20:35;98919.06;;;-7.33;84.16
57442;BME280;43284;47.042;15.498;2023-02-11T04:23:01;98915.81;;;-7.31;84.88
57442;BME280;43284;47.042;15.498;2023-02-11T04:25:26;98911.47;;;-7.33;84.48
57442;BME280;43284;47.042;15.498;2023-02-11T04:27:52;98914.84;;;-7.33;84.60
57442;BME280;43284;47.042;15.498;2023-02-11T04:30:18;98911.47;;;-7.33;83.88
57442;BME280;43284;47.042;15.498;2023-02-11T04:32:46;98909.50;;;-7.39;83.49
57442;BME280;43284;47.042;15.498;2023-02-11T04:35:11;98898.22;;;-7.44;84.08
57442;BME280;43284;47.042;15.498;2023-02-11T04:37:37;98895.59;;;-7.46;84.54
57442;BME280;43284;47.042;15.498;2023-02-11T04:40:03;98897.25;;;-7.46;84.41
57442;BME280;43284;47.042;15.498;2023-02-11T04:42:29;98901.16;;;-7.53;84.04
57442;BME280;43284;47.042;15.498;2023-02-11T04:44:54;98903.06;;;-7.49;84.07
57442;BME280;43284;47.042;15.498;2023-02-11T04:47:20;98893.72;;;-7.50;84.30
57442;BME280;43284;47.042;15.498;2023-02-11T04:49:45;98892.78;;;-7.52;84.65
57442;BME280;43284;47.042;15.498;2023-02-11T04:52:11;98888.63;;;-7.50;84.52
57442;BME280;43284;47.042;15.498;2023-02-11T04:54:37;98886.88;;;-7.51;84.28
57442;BME280;43284;47.042;15.498;2023-02-11T04:57:02;98881.03;;;-7.50;84.53
57442;BME280;43284;47.042;15.498;2023-02-11T04:59:28;98878.47;;;-7.50;84.42
57442;BME280;43284;47.042;15.498;2023-02-11T05:01:54;98880.31;;;-7.47;84.85
57442;BME280;43284;47.042;15.498;2023-02-11T05:04:20;98876.81;;;-7.66;84.25
57442;BME280;43284;47.042;15.498;2023-02-11T05:06:45;98873.81;;;-7.58;86.07
57442;BME280;43284;47.042;15.498;2023-02-11T05:09:14;98859.28;;;-7.61;85.39
57442;BME280;43284;47.042;15.498;2023-02-11T05:11:41;98869.44;;;-7.61;85.02
57442;BME280;43284;47.042;15.498;2023-02-11T05:14:07;98870.31;;;-7.60;85.22
57442;BME280;43284;47.042;15.498;2023-02-11T05:16:33;98858.50;;;-7.60;85.13
57442;BME280;43284;47.042;15.498;2023-02-11T05:18:58;98866.84;;;-7.62;85.24
57442;BME280;43284;47.042;15.498;2023-02-11T05:21:24;98878.50;;;-7.66;85.16
57442;BME280;43284;47.042;15.498;2023-02-11T05:23:50;98876.03;;;-7.64;85.40
57442;BME280;43284;47.042;15.498;2023-02-11T05:26:16;98862.41;;;-7.67;85.43
57442;BME280;43284;47.042;15.498;2023-02-11T05:28:43;98863.44;;;-7.63;85.42
57442;BME280;43284;47.042;15.498;2023-02-11T05:31:09;98864.94;;;-7.67;85.58
57442;BME280;43284;47.042;15.498;2023-02-11T05:33:35;98875.50;;;-7.75;85.22
57442;BME280;43284;47.042;15.498;2023-02-11T05:36:03;98868.66;;;-7.76;86.45
57442;BME280;43284;47.042;15.498;2023-02-11T05:38:31;98870.50;;;-7.74;86.19
57442;BME280;43284;47.042;15.498;2023-02-11T05:40:57;98873.31;;;-7.68;86.95
57442;BME280;43284;47.042;15.498;2023-02-11T05:43:22;98875.94;;;-7.66;86.83
57442;BME280;43284;47.042;15.498;2023-02-11T05:45:48;98881.13;;;-7.64;86.76
57442;BME280;43284;47.042;15.498;2023-02-11T05:48:14;98870.47;;;-7.57;87.06
57442;BME280;43284;47.042;15.498;2023-02-11T05:50:40;98869.69;;;-7.56;86.91
57442;BME280;43284;47.042;15.498;2023-02-11T05:53:06;98869.69;;;-7.56;86.51
57442;BME280;43284;47.042;15.498;2023-02-11T05:55:32;98872.91;;;-7.59;86.27
57442;BME280;43284;47.042;15.498;2023-02-11T05:57:58;98869.38;;;-7.62;85.82
57442;BME280;43284;47.042;15.498;2023-02-11T06:00:24;98870.97;;;-7.64;85.87
57442;BME280;43284;47.042;15.498;2023-02-11T06:02:50;98868.91;;;-7.72;85.70
57442;BME280;43284;47.042;15.498;2023-02-11T06:05:15;98859.75;;;-7.68;85.49
57442;BME280;43284;47.042;15.498;2023-02-11T06:07:41;98858.91;;;-7.69;85.82
57442;BME280;43284;47.042;15.498;2023-02-11T06:10:07;98865.66;;;-7.69;86.02
57442;BME280;43284;47.042;15.498;2023-02-11T06:12:33;98869.06;;;-7.69;86.16
57442;BME280;43284;47.042;15.498;2023-02-11T06:14:58;98867.38;;;-7.68;86.31
57442;BME280;43284;47.042;15.498;2023-02-11T06:17:24;98864.34;;;-7.61;87.20
57442;BME280;43284;47.042;15.498;2023-02-11T06:19:50;98860.47;;;-7.54;87.08
57442;BME280;43284;47.042;15.498;2023-02-11T06:22:16;98862.53;;;-7.47;87.47
57442;BME280;43284;47.042;15.498;2023-02-11T06:24:41;98863.47;;;-7.45;86.81
57442;BME280;43284;47.042;15.498;2023-02-11T06:27:07;98850.91;;;-7.42;86.41
57442;BME280;43284;47.042;15.498;2023-02-11T06:29:33;98850.19;;;-7.39;85.84
57442;BME280;43284;47.042;15.498;2023-02-11T06:31:59;98845.75;;;-7.43;85.69
57442;BME280;43284;47.042;15.498;2023-02-11T06:34:24;98843.16;;;-7.45;85.98
57442;BME280;43284;47.042;15.498;2023-02-11T06:36:50;98848.28;;;-7.43;86.24
57442;BME280;43284;47.042;15.498;2023-02-11T06:39:16;98847.66;;;-7.39;86.26
57442;BME280;43284;47.042;15.498;2023-02-11T06:41:41;98846.06;;;-7.37;86.66
57442;BME280;43284;47.042;15.498;2023-02-11T06:44:07;98838.81;;;-7.30;87.55
57442;BME280;43284;47.042;15.498;2023-02-11T06:46:33;98841.59;;;-7.25;87.20
57442;BME280;43284;47.042;15.498;2023-02-11T06:48:58;98855.38;;;-7.20;87.20
57442;BME280;43284;47.042;15.498;2023-02-11T06:51:24;98853.06;;;-7.15;87.37
57442;BME280;43284;47.042;15.498;2023-02-11T06:53:49;98849.00;;;-7.12;87.52
57442;BME280;43284;47.042;15.498;2023-02-11T06:56:18;98851.84;;;-7.06;87.73
57442;BME280;43284;47.042;15.498;2023-02-11T06:58:45;98844.44;;;-7.01;87.62
57442;BME280;43284;47.042;15.498;2023-02-11T07:01:14;98847.47;;;-6.90;88.05
57442;BME280;43284;47.042;15.498;2023-02-11T07:03:43;98842.97;;;-6.78;88.63
57442;BME280;43284;47.042;15.498;2023-02-11T07:06:12;98841.88;;;-6.65;88.96
57442;BME280;43284;47.042;15.498;2023-02-11T07:08:38;98845.09;;;-6.50;89.32
57442;BME280;43284;47.042;15.498;2023-02-11T07:11:12;98844.00;;;-6.37;89.13
57442;BME280;43284;47.042;15.498;2023-02-11T07:13:39;98846.38;;;-6.22;89.15
57442;BME280;43284;47.042;15.498;2023-02-11T07:16:09;98849.22;;;-6.14;88.16
57442;BME280;43284;47.042;15.498;2023-02-11T07:18:35;98850.25;;;-6.11;86.87
57442;BME280;43284;47.042;15.498;2023-02-11T07:21:06;98842.78;;;-6.08;86.13
57442;BME280;43284;47.042;15.498;2023-02-11T07:23:32;98847.16;;;-6.04;86.54
57442;BME280;43284;47.042;15.498;2023-02-11T07:26:06;98846.69;;;-5.95;86.27
57442;BME280;43284;47.042;15.498;2023-02-11T07:28:34;98841.84;;;-5.89;85.87
57442;BME280;43284;47.042;15.498;2023-02-11T07:31:12;98847.28;;;-5.81;85.40
57442;BME280;43284;47.042;15.498;2023-02-11T07:33:38;98851.72;;;-5.77;84.89
57442;BME280;43284;47.042;15.498;2023-02-11T07:36:06;98837.38;;;-5.75;83.77
57442;BME280;43284;47.042;15.498;2023-02-11T07:38:33;98842.84;;;-5.66;84.31
57442;BME280;43284;47.042;15.498;2023-02-11T07:41:00;98839.63;;;-5.62;84.33
57442;BME280;43284;47.042;15.498;2023-02-11T07:43:26;98846.72;;;-5.54;84.15
57442;BME280;43284;47.042;15.498;2023-02-11T07:45:52;98845.28;;;-5.48;83.80
57442;BME280;43284;47.042;15.498;2023-02-11T07:48:17;98843.03;;;-5.40;83.80
57442;BME280;43284;47.042;15.498;2023-02-11T07:50:43;98839.34;;;-5.27;82.90
57442;BME280;43284;47.042;15.498;2023-02-11T07:53:09;98833.91;;;-5.14;82.63
57442;BME280;43284;47.042;15.498;2023-02-11T07:55:34;98824.53;;;-4.94;82.14
57442;BME280;43284;47.042;15.498;2023-02-11T07:58:00;98828.75;;;-4.94;81.67
57442;BME280;43284;47.042;15.498;2023-02-11T08:00:26;98832.22;;;-4.92;81.66
57442;BME280;43284;47.042;15.498;2023-02-11T08:02:51;98830.75;;;-4.87;81.87
57442;BME280;43284;47.042;15.498;2023-02-11T08:05:17;98823.44;;;-4.78;81.41
57442;BME280;43284;47.042;15.498;2023-02-11T08:07:43;98823.00;;;-4.68;81.06
57442;BME280;43284;47.042;15.498;2023-02-11T08:10:08;98826.66;;;-4.61;80.59
57442;BME280;43284;47.042;15.498;2023-02-11T08:12:34;98819.03;;;-4.60;80.58
57442;BME280;43284;47.042;15.498;2023-02-11T08:15:00;98832.03;;;-4.53;80.63
57442;BME280;43284;47.042;15.498;2023-02-11T08:17:25;98827.25;;;-4.46;80.40
57442;BME280;43284;47.042;15.498;2023-02-11T08:19:51;98826.59;;;-4.40;80.67
57442;BME280;43284;47.042;15.498;2023-02-11T08:22:17;98832.03;;;-4.31;80.92
57442;BME280;43284;47.042;15.498;2023-02-11T08:24:42;98832.56;;;-4.17;79.61
57442;BME280;43284;47.042;15.498;2023-02-11T08:27:08;98832.97;;;-4.05;78.99
57442;BME280;43284;47.042;15.498;2023-02-11T08:29:34;98832.28;;;-4.01;78.03
57442;BME280;43284;47.042;15.498;2023-02-11T08:31:59;98829.56;;;-3.81;76.66
57442;BME280;43284;47.042;15.498;2023-02-11T08:34:25;98824.84;;;-3.70;76.41
57442;BME280;43284;47.042;15.498;2023-02-11T08:36:51;98834.66;;;-3.57;76.04
57442;BME280;43284;47.042;15.498;2023-02-11T08:39:19;98834.88;;;-3.51;76.01
57442;BME280;43284;47.042;15.498;2023-02-11T08:41:50;98840.84;;;-3.50;75.59
57442;BME280;43284;47.042;15.498;2023-02-11T08:44:18;98833.59;;;-3.38;76.10
57442;BME280;43284;47.042;15.498;2023-02-11T08:46:44;98827.16;;;-3.27;76.41
57442;BME280;43284;47.042;15.498;2023-02-11T08:49:10;98824.75;;;-3.22;75.54
57442;BME280;43284;47.042;15.498;2023-02-11T08:51:35;98823.41;;;-3.11;75.11
57442;BME280;43284;47.042;15.498;2023-02-11T08:54:01;98823.28;;;-2.88;74.15
57442;BME280;43284;47.042;15.498;2023-02-11T08:56:28;98823.47;;;-2.82;74.63
57442;BME280;43284;47.042;15.498;2023-02-11T08:58:55;98822.28;;;-2.65;74.28
57442;BME280;43284;47.042;15.498;2023-02-11T09:01:24;98817.50;;;-2.54;73.14
57442;BME280;43284;47.042;15.498;2023-02-11T09:03:51;98812.69;;;-2.43;71.63
57442;BME280;43284;47.042;15.498;2023-02-11T09:06:17;98809.41;;;-2.39;71.59
57442;BME280;43284;47.042;15.498;2023-02-11T09:08:46;98801.25;;;-2.26;71.91
57442;BME280;43284;47.042;15.498;2023-02-11T09:11:14;98810.28;;;-2.09;69.40
57442;BME280;43284;47.042;15.498;2023-02-11T09:13:41;98802.72;;;-2.05;70.26
57442;BME280;43284;47.042;15.498;2023-02-11T09:16:10;98800.59;;;-1.89;69.74
57442;BME280;43284;47.042;15.498;2023-02-11T09:18:40;98798.25;;;-1.79;69.27
57442;BME280;43284;47.042;15.498;2023-02-11T09:21:07;98807.91;;;-1.71;69.04
57442;BME280;43284;47.042;15.498;2023-02-11T09:23:34;98799.50;;;-1.65;71.10
57442;BME280;43284;47.042;15.498;2023-02-11T09:26:07;98804.72;;;-1.62;70.36
57442;BME280;43284;47.042;15.498;2023-02-11T09:28:33;98798.09;;;-1.54;70.25
57442;BME280;43284;47.042;15.498;2023-02-11T09:30:58;98803.78;;;-1.66;69.58
57442;BME280;43284;47.042;15.498;2023-02-11T09:33:28;98793.88;;;-1.52;69.65
57442;BME280;43284;47.042;15.498;2023-02-11T09:35:54;98793.94;;;-1.14;69.87
57442;BME280;43284;47.042;15.498;2023-02-11T09:38:19;98783.09;;;-1.04;68.58
57442;BME280;43284;47.042;15.498;2023-02-11T09:40:45;98787.75;;;-0.87;68.65
57442;BME280;43284;47.042;15.498;2023-02-11T09:43:18;98785.53;;;-0.72;67.58
57442;BME280;43284;47.042;15.498;2023-02-11T09:45:45;98782.78;;;-0.42;68.06
57442;BME280;43284;47.042;15.498;2023-02-11T09:48:20;98775.84;;;-0.44;66.67
57442;BME280;43284;47.042;15.498;2023-02-11T09:50:56;98778.19;;;-0.55;65.32
57442;BME280;43284;47.042;15.498;2023-02-11T09:53:27;98774.03;;;-0.48;66.66
57442;BME280;43284;47.042;15.498;2023-02-11T09:55:55;98768.94;;;-0.47;67.99
57442;BME280;43284;47.042;15.498;2023-02-11T09:58:28;98764.78;;;-0.42;66.91
57442;BME280;43284;47.042;15.498;2023-02-11T10:09:16;98750.91;;;-0.50;63.70
57442;BME280;43284;47.042;15.498;2023-02-11T10:11:51;98755.66;;;-0.27;63.71
57442;BME280;43284;47.042;15.498;2023-02-11T10:22:34;98737.72;;;-0.24;62.61
57442;BME280;43284;47.042;15.498;2023-02-11T10:25:11;98739.34;;;-0.29;63.73
57442;BME280;43284;47.042;15.498;2023-02-11T10:27:41;98734.66;;;-0.06;63.71
57442;BME280;43284;47.042;15.498;2023-02-11T10:33:10;98721.56;;;0.29;63.67
57442;BME280;43284;47.042;15.498;2023-02-11T10:35:37;98714.56;;;0.22;63.36
57442;BME280;43284;47.042;15.498;2023-02-11T10:38:03;98711.91;;;0.15;63.23
57442;BME280;43284;47.042;15.498;2023-02-11T10:40:30;98707.03;;;0.32;62.53
57442;BME280;43284;47.042;15.498;2023-02-11T10:43:09;98701.19;;;0.39;62.46
57442;BME280;43284;47.042;15.498;2023-02-11T10:45:43;98696.69;;;0.81;62.92
57442;BME280;43284;47.042;15.498;2023-02-11T10:53:38;98692.94;;;1.18;59.43
57442;BME280;43284;47.042;15.498;2023-02-11T10:56:06;98689.44;;;1.15;57.34
57442;BME280;43284;47.042;15.498;2023-02-11T11:01:03;98691.41;;;1.31;56.30
57442;BME280;43284;47.042;15.498;2023-02-11T11:03:36;98677.13;;;1.58;56.52
57442;BME280;43284;47.042;15.498;2023-02-11T11:06:07;98674.00;;;1.90;55.99
57442;BME280;43284;47.042;15.498;2023-02-11T11:08:45;98665.28;;;1.75;54.95
57442;BME280;43284;47.042;15.498;2023-02-11T11:11:22;98664.50;;;1.84;56.41
57442;BME280;43284;47.042;15.498;2023-02-11T11:18:46;98647.91;;;2.52;53.44
57442;BME280;43284;47.042;15.498;2023-02-11T11:21:25;98643.81;;;2.83;53.33
57442;BME280;43284;47.042;15.498;2023-02-11T11:23:55;98642.25;;;3.15;52.20
57442;BME280;43284;47.042;15.498;2023-02-11T11:26:22;98630.31;;;3.34;51.01
57442;BME280;43284;47.042;15.498;2023-02-11T11:29:07;98626.84;;;3.36;51.06
57442;BME280;43284;47.042;15.498;2023-02-11T11:31:36;98621.72;;;3.35;50.63
57442;BME280;43284;47.042;15.498;2023-02-11T11:34:27;98607.88;;;3.26;50.29
57442;BME280;43284;47.042;15.498;2023-02-11T11:36:55;98601.03;;;3.33;48.91
57442;BME280;43284;47.042;15.498;2023-02-11T11:41:55;98612.16;;;3.23;49.75
57442;BME280;43284;47.042;15.498;2023-02-11T11:49:44;98595.75;;;3.15;50.91
57442;BME280;43284;47.042;15.498;2023-02-11T11:52:36;98588.97;;;3.38;49.57
57442;BME280;43284;47.042;15.498;2023-02-11T11:57:38;98607.94;;;3.49;52.16
57442;BME280;43284;47.042;15.498;2023-02-11T12:00:04;98596.78;;;3.57;50.41
57442;BME280;43284;47.042;15.498;2023-02-11T12:05:36;98588.22;;;3.84;48.06
57442;BME280;43284;47.042;15.498;2023-02-11T12:19:20;98557.13;;;4.64;47.90
57442;BME280;43284;47.042;15.498;2023-02-11T12:27:27;98542.31;;;5.01;47.54
57442;BME280;43284;47.042;15.498;2023-02-11T12:30:06;98539.59;;;5.30;47.55
57442;BME280;43284;47.042;15.498;2023-02-11T12:38:44;98507.97;;;6.04;45.28
57442;BME280;43284;47.042;15.498;2023-02-11T12:41:26;98503.78;;;5.83;42.98
57442;BME280;43284;47.042;15.498;2023-02-11T12:44:28;98490.50;;;6.22;45.22
57442;BME280;43284;47.042;15.498;2023-02-11T12:47:58;98494.91;;;6.15;43.81
57442;BME280;43284;47.042;15.498;2023-02-11T12:50:06;98498.31;;;6.18;43.63
57442;BME280;43284;47.042;15.498;2023-02-11T12:52:42;98493.06;;;6.25;44.62
57442;BME280;43284;47.042;15.498;2023-02-11T12:55:21;98480.81;;;6.37;44.90
57442;BME280;43284;47.042;15.498;2023-02-11T12:57:49;98471.91;;;6.62;43.71
57442;BME280;43284;47.042;15.498;2023-02-11T13:07:49;98457.69;;;6.90;42.00
57442;BME280;43284;47.042;15.498;2023-02-11T13:10:31;98450.94;;;6.77;41.04
57442;BME280;43284;47.042;15.498;2023-02-11T13:12:59;98446.72;;;6.67;41.47
57442;BME280;43284;47.042;15.498;2023-02-11T13:15:54;98445.78;;;6.71;41.98
57442;BME280;43284;47.042;15.498;2023-02-11T13:33:34;98431.88;;;6.76;39.27
57442;BME280;43284;47.042;15.498;2023-02-11T13:35:39;98438.47;;;7.02;40.64
57442;BME280;43284;47.042;15.498;2023-02-11T13:40:41;98435.81;;;7.64;39.40
57442;BME280;43284;47.042;15.498;2023-02-11T13:43:27;98429.34;;;7.87;38.77
57442;BME280;43284;47.042;15.498;2023-02-11T13:46:05;98428.97;;;8.10;37.69
57442;BME280;43284;47.042;15.498;2023-02-11T13:48:37;98425.06;;;8.32;37.34
57442;BME280;43284;47.042;15.498;2023-02-11T13:51:08;98422.81;;;8.12;37.20
57442;BME280;43284;47.042;15.498;2023-02-11T13:53:53;98433.06;;;7.73;36.97
57442;BME280;43284;47.042;15.498;2023-02-11T13:56:33;98434.06;;;7.63;37.61
57442;BME280;43284;47.042;15.498;2023-02-11T13:59:02;98438.63;;;7.50;37.50
57442;BME280;43284;47.042;15.498;2023-02-11T14:05:18;98445.84;;;7.33;37.72
57442;BME280;43284;47.042;15.498;2023-02-11T14:11:01;98431.31;;;7.18;37.20
57442;BME280;43284;47.042;15.498;2023-02-11T14:13:32;98429.19;;;7.45;37.67
57442;BME280;43284;47.042;15.498;2023-02-11T14:16:06;98433.28;;;7.59;37.27
57442;BME280;43284;47.042;15.498;2023-02-11T14:23:52;98429.91;;;8.04;37.06
57442;BME280;43284;47.042;15.498;2023-02-11T14:28:47;98442.56;;;8.24;36.91
57442;BME280;43284;47.042;15.498;2023-02-11T14:31:24;98437.25;;;8.29;35.92
57442;BME280;43284;47.042;15.498;2023-02-11T14:41:47;98432.13;;;7.77;35.38
57442;BME280;43284;47.042;15.498;2023-02-11T14:44:22;98427.84;;;7.72;36.74
57442;BME280;43284;47.042;15.498;2023-02-11T14:46:50;98420.88;;;7.75;36.73
57442;BME280;43284;47.042;15.498;2023-02-11T14:49:27;98422.72;;;7.67;36.41
57442;BME280;43284;47.042;15.498;2023-02-11T14:52:03;98421.53;;;7.34;36.02
57442;BME280;43284;47.042;15.498;2023-02-11T14:54:31;98430.34;;;7.25;36.41
57442;BME280;43284;47.042;15.498;2023-02-11T14:57:13;98433.78;;;7.27;36.18
57442;BME280;43284;47.042;15.498;2023-02-11T15:00:01;98424.38;;;7.18;36.22
57442;BME280;43284;47.042;15.498;2023-02-11T15:02:31;98419.28;;;7.11;35.80
57442;BME280;43284;47.042;15.498;2023-02-11T15:05:19;98416.78;;;7.01;36.72
57442;BME280;43284;47.042;15.498;2023-02-11T15:07:48;98423.09;;;6.87;37.69
57442;BME280;43284;47.042;15.498;2023-02-11T15:10:18;98423.09;;;6.85;37.10
57442;BME280;43284;47.042;15.498;2023-02-11T15:12:45;98424.88;;;6.81;36.58
57442;BME280;43284;47.042;15.498;2023-02-11T15:15:15;98429.34;;;6.72;36.63
57442;BME280;43284;47.042;15.498;2023-02-11T15:17:41;98431.13;;;6.67;37.66
57442;BME280;43284;47.042;15.498;2023-02-11T15:20:17;98422.72;;;6.46;37.68
57442;BME280;43284;47.042;15.498;2023-02-11T15:22:45;98423.63;;;6.42;38.58
57442;BME280;43284;47.042;15.498;2023-02-11T15:25:15;98422.00;;;6.33;37.88
57442;BME280;43284;47.042;15.498;2023-02-11T15:27:48;98424.59;;;6.32;38.70
57442;BME280;43284;47.042;15.498;2023-02-11T15:32:50;98435.94;;;6.26;39.02
57442;BME280;43284;47.042;15.498;2023-02-11T15:35:18;98435.19;;;6.15;37.48
57442;BME280;43284;47.042;15.498;2023-02-11T15:37:44;98434.34;;;6.10;37.94
57442;BME280;43284;47.042;15.498;2023-02-11T15:40:18;98435.34;;;5.96;36.65
57442;BME280;43284;47.042;15.498;2023-02-11T15:43:03;98440.56;;;5.93;36.80
57442;BME280;43284;47.042;15.498;2023-02-11T15:45:55;98449.28;;;5.85;36.60
57442;BME280;43284;47.042;15.498;2023-02-11T15:48:42;98453.66;;;5.80;38.69